Time;durP1;ratioP1;P1;durP2;ratioP2;P2;SDS_P1;SDS_P2;PMS_P1;PMS_P2;Temp;Humidity;BMP_temperature;BMP_pressure;BME280_temperature;BME280_humidity;BME280_pressure;Samples;Min_cycle;Max_cycle;Signal;HPM_P1;HPM_P2
2022/01/02 00:01:15;;;;;;;25.35;3.55;;;10.60;99.90;;;;;;4964753;28;20035;-94
2022/01/02 00:03:41;;;;;;;22.70;3.15;;;10.60;99.90;;;;;;4973489;28;20026;-91
2022/01/02 00:06:08;;;;;;;20.58;3.00;;;10.60;99.90;;;;;;4981989;28;20025;-93
2022/01/02 00:08:41;;;;;;;22.10;3.13;;;10.60;99.90;;;;;;4981592;28;20082;-93
2022/01/02 00:11:11;;;;;;;33.67;3.97;;;10.60;99.90;;;;;;4962684;28;20027;-94
2022/01/02 00:13:45;;;;;;;24.95;3.50;;;10.50;99.90;;;;;;4959705;28;20121;-91
2022/01/02 00:16:14;;;;;;;29.13;3.30;;;10.50;99.90;;;;;;4961833;28;20038;-92
2022/01/02 00:18:49;;;;;;;15.93;2.67;;;10.60;99.90;;;;;;4959173;28;20023;-93
2022/01/02 00:21:17;;;;;;;23.95;3.45;;;10.50;99.90;;;;;;4959101;28;20042;-93
2022/01/02 00:24:03;;;;;;;23.75;3.55;;;10.50;99.90;;;;;;4958412;28;20030;-93
2022/01/02 00:26:43;;;;;;;29.52;3.80;;;10.50;99.90;;;;;;4958613;28;20027;-94
2022/01/02 00:29:10;;;;;;;27.58;3.42;;;10.60;99.90;;;;;;4958898;28;20023;-94
2022/01/02 00:31:36;;;;;;;26.33;2.90;;;10.50;99.90;;;;;;4958834;28;20034;-93
2022/01/02 00:34:04;;;;;;;19.25;2.78;;;10.50;99.90;;;;;;4958324;28;20035;-93
2022/01/02 00:36:30;;;;;;;31.20;4.57;;;10.50;99.90;;;;;;4958216;28;20027;-93
2022/01/02 00:38:56;;;;;;;25.23;3.22;;;10.50;99.90;;;;;;4957991;28;20058;-94
2022/01/02 00:41:48;;;;;;;20.45;3.08;;;10.50;99.90;;;;;;4957749;28;20035;-94
2022/01/02 00:44:33;;;;;;;28.95;4.28;;;10.50;99.90;;;;;;4958295;28;20034;-95
2022/01/02 00:47:25;;;;;;;28.40;3.10;;;10.50;99.90;;;;;;4957755;28;20094;-94
2022/01/02 00:50:09;;;;;;;25.70;3.70;;;10.40;99.90;;;;;;4958372;28;20280;-93
2022/01/02 00:52:37;;;;;;;21.92;2.92;;;10.40;99.90;;;;;;4959567;28;20033;-93
2022/01/02 00:55:09;;;;;;;23.17;3.20;;;10.40;99.90;;;;;;4961402;28;20128;-93
2022/01/02 00:57:38;;;;;;;22.90;4.10;;;10.40;99.90;;;;;;4959857;28;20022;-94
2022/01/02 01:00:10;;;;;;;23.85;3.20;;;10.40;99.90;;;;;;4958379;28;20058;-93
2022/01/02 01:02:50;;;;;;;19.48;4.35;;;10.30;99.90;;;;;;4958581;28;20019;-95
2022/01/02 01:05:21;;;;;;;36.35;3.50;;;10.30;99.90;;;;;;4958819;28;20023;-92
2022/01/02 01:07:49;;;;;;;33.65;3.47;;;10.30;99.90;;;;;;4958178;28;20062;-94
2022/01/02 01:10:15;;;;;;;21.55;2.40;;;10.30;99.90;;;;;;4958129;28;20081;-94
2022/01/02 01:12:40;;;;;;;23.85;3.72;;;10.30;99.90;;;;;;4957979;28;20050;-93
2022/01/02 01:15:08;;;;;;;26.02;3.08;;;10.20;99.90;;;;;;4957954;28;20534;-93
2022/01/02 01:17:37;;;;;;;27.50;2.58;;;10.20;99.90;;;;;;4958039;28;20050;-92
2022/01/02 01:20:09;;;;;;;29.42;3.97;;;10.20;99.90;;;;;;4958262;28;20148;-93
2022/01/02 01:22:35;;;;;;;33.80;4.40;;;10.20;99.90;;;;;;4958041;28;20031;-94
2022/01/02 01:25:01;;;;;;;24.85;4.25;;;10.20;99.90;;;;;;4957751;28;20027;-93
2022/01/02 01:27:27;;;;;;;30.15;4.00;;;10.10;99.90;;;;;;4957816;28;20373;-92
2022/01/02 01:29:53;;;;;;;31.77;5.15;;;10.10;99.90;;;;;;4957352;28;20022;-93
2022/01/02 01:32:18;;;;;;;31.00;4.45;;;10.10;99.90;;;;;;4957548;28;20050;-94
2022/01/02 01:34:44;;;;;;;32.35;3.63;;;10.10;99.90;;;;;;4957459;28;20063;-94
2022/01/02 01:37:10;;;;;;;29.17;4.55;;;10.10;99.90;;;;;;4952822;28;20027;-94
2022/01/02 01:39:36;;;;;;;42.78;4.95;;;10.10;99.90;;;;;;4938433;29;20035;-93
2022/01/02 01:42:10;;;;;;;23.38;4.57;;;10.10;99.90;;;;;;4938402;29;20477;-92
2022/01/02 01:47:14;;;;;;;33.60;4.65;;;10.10;99.90;;;;;;4955259;29;20031;-93
2022/01/02 01:49:40;;;;;;;22.15;3.03;;;10.10;99.90;;;;;;4938045;29;20201;-93
2022/01/02 01:52:06;;;;;;;27.08;4.47;;;10.10;99.90;;;;;;4938191;29;20033;-94
2022/01/02 01:54:32;;;;;;;29.33;4.03;;;10.10;99.90;;;;;;4938020;29;20039;-92
2022/01/02 01:56:58;;;;;;;29.30;4.05;;;10.10;99.90;;;;;;4939673;29;20091;-93
2022/01/02 01:59:24;;;;;;;23.15;3.88;;;10.00;99.90;;;;;;4942009;29;20046;-94
2022/01/02 02:01:50;;;;;;;28.67;4.32;;;10.10;99.90;;;;;;4957902;29;20032;-93
2022/01/02 02:04:17;;;;;;;22.25;3.47;;;10.10;99.90;;;;;;4942300;29;20031;-95
2022/01/02 02:06:43;;;;;;;26.83;3.15;;;10.10;99.90;;;;;;4943798;29;20023;-93
2022/01/02 02:09:09;;;;;;;40.00;5.28;;;10.10;99.90;;;;;;4941971;29;20023;-92
2022/01/02 02:11:39;;;;;;;29.45;4.43;;;10.10;99.90;;;;;;4941478;29;20047;-95
2022/01/02 02:14:07;;;;;;;29.35;3.95;;;10.10;99.90;;;;;;4941580;29;20067;-92
2022/01/02 02:16:34;;;;;;;30.17;3.78;;;10.10;99.90;;;;;;4941588;29;20027;-93
2022/01/02 02:19:01;;;;;;;30.15;3.50;;;10.10;99.90;;;;;;4941525;29;20131;-94
2022/01/02 02:21:35;;;;;;;30.30;4.38;;;10.20;99.90;;;;;;4941486;29;20027;-91
2022/01/02 02:24:02;;;;;;;30.33;4.15;;;10.20;99.90;;;;;;4941291;29;20035;-93
2022/01/02 02:26:28;;;;;;;21.17;3.45;;;10.20;99.90;;;;;;4941589;29;20047;-93
2022/01/02 02:28:54;;;;;;;21.15;3.85;;;10.20;99.90;;;;;;4941227;29;20067;-92
2022/01/02 02:31:20;;;;;;;40.85;4.13;;;10.20;99.90;;;;;;4940915;29;20031;-94
2022/01/02 02:33:45;;;;;;;22.70;4.97;;;10.20;99.90;;;;;;4941359;29;20082;-92
2022/01/02 02:36:11;;;;;;;20.35;3.70;;;10.10;99.90;;;;;;4941109;29;20089;-92
2022/01/02 02:38:39;;;;;;;31.88;4.13;;;10.20;99.90;;;;;;4941381;28;20441;-93
2022/01/02 02:41:05;;;;;;;28.00;4.38;;;10.20;99.90;;;;;;4941561;29;20058;-91
2022/01/02 02:43:37;;;;;;;28.80;4.47;;;10.20;99.90;;;;;;4941304;29;20106;-93
2022/01/02 02:49:03;;;;;;;34.85;3.97;;;10.20;99.90;;;;;;4958512;29;20131;-94
2022/01/02 02:54:19;;;;;;;25.83;4.70;;;10.20;99.90;;;;;;4958746;29;20544;-92
2022/01/02 02:56:55;;;;;;;29.15;4.10;;;10.20;99.90;;;;;;4941325;29;20024;-95
2022/01/02 02:59:31;;;;;;;35.65;7.38;;;10.20;99.90;;;;;;4941352;29;20023;-93
2022/01/02 03:01:58;;;;;;;26.15;3.72;;;10.20;99.90;;;;;;4941267;29;20031;-92
2022/01/02 03:04:24;;;;;;;31.58;5.30;;;10.20;99.90;;;;;;4940925;29;20031;-92
2022/01/02 03:06:51;;;;;;;40.28;5.82;;;10.20;99.90;;;;;;4941127;29;20059;-94
2022/01/02 03:09:38;;;;;;;30.35;4.53;;;10.20;99.90;;;;;;4940610;29;20030;-94
2022/01/02 03:12:06;;;;;;;25.23;4.65;;;10.20;99.90;;;;;;4940912;29;20362;-94
2022/01/02 03:14:32;;;;;;;34.00;5.82;;;10.20;99.90;;;;;;4941015;29;20042;-94
2022/01/02 03:16:58;;;;;;;32.90;5.70;;;10.20;99.90;;;;;;4942651;29;20027;-96
2022/01/02 03:19:24;;;;;;;32.67;5.57;;;10.20;99.90;;;;;;4942574;29;20485;-95
2022/01/02 03:21:50;;;;;;;32.40;6.43;;;10.20;99.90;;;;;;4960105;29;20049;-94
2022/01/02 03:24:16;;;;;;;41.63;6.43;;;10.20;99.90;;;;;;4944898;29;20027;-96
2022/01/02 03:26:42;;;;;;;43.67;5.57;;;10.20;99.90;;;;;;4946416;29;20030;-96
2022/01/02 03:29:08;;;;;;;31.77;4.95;;;10.10;99.90;;;;;;4945002;29;20031;-95
2022/01/02 03:31:33;;;;;;;34.03;6.93;;;10.20;99.90;;;;;;4946414;29;20040;-94
2022/01/02 03:34:02;;;;;;;34.35;5.90;;;10.10;99.90;;;;;;4947769;29;20043;-95
2022/01/02 03:36:27;;;;;;;36.83;5.07;;;10.10;99.90;;;;;;4949894;29;20035;-95
2022/01/02 03:38:53;;;;;;;34.28;5.45;;;10.10;99.90;;;;;;4959638;28;20022;-95
2022/01/02 03:41:19;;;;;;;30.67;5.00;;;10.10;99.90;;;;;;4962005;28;20031;-96
2022/01/02 03:43:45;;;;;;;43.70;5.35;;;10.10;99.90;;;;;;4961551;28;20046;-94
2022/01/02 03:46:15;;;;;;;28.58;4.38;;;10.10;99.90;;;;;;4964274;28;20027;-95
2022/01/02 03:48:43;;;;;;;41.42;5.00;;;10.10;99.90;;;;;;4973039;28;20038;-96
2022/01/02 03:51:12;;;;;;;26.20;4.50;;;10.10;99.90;;;;;;4975712;28;20047;-96
2022/01/02 03:53:41;;;;;;;38.13;6.43;;;10.00;99.90;;;;;;4989739;28;20046;-96
2022/01/02 03:56:08;;;;;;;25.63;5.35;;;10.00;99.90;;;;;;4973544;28;20054;-96
2022/01/02 03:58:40;;;;;;;33.47;4.88;;;10.00;99.90;;;;;;4996920;28;20046;-95
2022/01/02 04:01:09;;;;;;;27.23;5.03;;;10.10;99.90;;;;;;4953601;28;20119;-96
2022/01/02 04:03:35;;;;;;;33.08;4.88;;;10.00;99.90;;;;;;4974571;28;20031;-95
2022/01/02 04:06:02;;;;;;;35.05;6.15;;;10.00;99.90;;;;;;4966759;28;20031;-94
2022/01/02 04:08:28;;;;;;;29.50;4.18;;;10.00;99.90;;;;;;4967909;28;20472;-95
2022/01/02 04:10:54;;;;;;;28.13;4.72;;;10.00;99.90;;;;;;4966304;28;20042;-96
2022/01/02 04:13:19;;;;;;;43.35;5.53;;;10.00;99.90;;;;;;4962975;28;20031;-93
2022/01/02 04:15:45;;;;;;;31.10;5.65;;;10.00;99.90;;;;;;4959733;28;20054;-94
2022/01/02 04:18:11;;;;;;;34.42;5.05;;;9.90;99.90;;;;;;4959827;28;20464;-93
2022/01/02 04:20:36;;;;;;;31.98;4.47;;;10.00;99.90;;;;;;4959451;28;20027;-94
2022/01/02 04:23:02;;;;;;;25.98;4.53;;;9.90;99.90;;;;;;4960156;28;20030;-95
2022/01/02 04:25:28;;;;;;;25.80;3.67;;;9.90;99.90;;;;;;4959290;28;20065;-93
2022/01/02 04:27:53;;;;;;;32.03;4.53;;;9.90;99.90;;;;;;4959185;28;20070;-93
2022/01/02 04:30:19;;;;;;;24.17;3.85;;;9.90;99.90;;;;;;4960167;28;20027;-94
2022/01/02 04:32:48;;;;;;;25.48;3.67;;;9.90;99.90;;;;;;4961316;28;20034;-94
2022/01/02 04:35:14;;;;;;;24.95;3.03;;;9.90;99.90;;;;;;4968401;28;20039;-93
2022/01/02 04:37:40;;;;;;;17.00;2.97;;;9.90;99.90;;;;;;4962721;28;20026;-94
2022/01/02 04:40:06;;;;;;;8.90;1.77;;;9.90;99.90;;;;;;4961547;28;20081;-94
2022/01/02 04:42:32;;;;;;;11.48;2.10;;;9.90;99.90;;;;;;4963864;28;20134;-95
2022/01/02 04:44:57;;;;;;;15.07;2.28;;;9.80;99.90;;;;;;4965657;28;20065;-94
2022/01/02 04:47:23;;;;;;;21.20;3.15;;;9.80;99.90;;;;;;4966639;28;20038;-95
2022/01/02 04:49:49;;;;;;;15.85;2.35;;;9.80;99.90;;;;;;4952743;28;20054;-94
2022/01/02 04:52:17;;;;;;;17.90;2.25;;;9.70;99.90;;;;;;4962078;28;20045;-95
2022/01/02 04:54:43;;;;;;;20.67;2.65;;;9.70;99.90;;;;;;4961494;28;20066;-94
2022/01/02 04:57:09;;;;;;;13.90;2.40;;;9.70;99.90;;;;;;4962022;28;20030;-93
2022/01/02 04:59:37;;;;;;;17.25;2.17;;;9.70;99.90;;;;;;4959976;28;20111;-94
2022/01/02 05:02:03;;;;;;;15.00;2.17;;;9.60;99.90;;;;;;4960541;28;20484;-94
2022/01/02 05:04:29;;;;;;;12.98;2.25;;;9.70;99.90;;;;;;4959444;28;20113;-93
2022/01/02 05:06:54;;;;;;;11.88;1.90;;;9.60;99.90;;;;;;4958463;28;20026;-93
2022/01/02 05:09:20;;;;;;;17.55;2.55;;;9.60;99.90;;;;;;4959358;28;20038;-94
2022/01/02 05:11:46;;;;;;;16.25;2.40;;;9.60;99.90;;;;;;4958596;28;20050;-93
2022/01/02 05:14:11;;;;;;;18.77;3.30;;;9.60;99.90;;;;;;4958172;28;20039;-94
2022/01/02 05:16:37;;;;;;;21.20;2.65;;;9.50;99.90;;;;;;4958013;28;20042;-95
2022/01/02 05:19:02;;;;;;;16.27;2.60;;;9.60;99.90;;;;;;4958044;28;20125;-93
2022/01/02 05:21:28;;;;;;;13.18;2.55;;;9.50;99.90;;;;;;4958505;28;20023;-95
2022/01/02 05:23:54;;;;;;;14.25;2.08;;;9.50;99.90;;;;;;4958034;28;20034;-95
2022/01/02 05:26:20;;;;;;;16.05;2.45;;;9.50;99.90;;;;;;4958599;28;20103;-94
2022/01/02 05:28:45;;;;;;;16.23;2.72;;;9.50;99.90;;;;;;4959915;28;20042;-95
2022/01/02 05:31:11;;;;;;;21.92;2.78;;;9.50;99.90;;;;;;4958938;28;20026;-93
2022/01/02 05:33:37;;;;;;;17.02;4.18;;;9.50;99.90;;;;;;4965742;28;20035;-94
2022/01/02 05:36:02;;;;;;;12.73;1.70;;;9.50;99.90;;;;;;4966942;28;20030;-93
2022/01/02 05:38:28;;;;;;;13.35;1.80;;;9.50;99.90;;;;;;4957672;28;20039;-94
2022/01/02 05:40:55;;;;;;;6.97;1.58;;;9.50;99.90;;;;;;4941553;29;20518;-95
2022/01/02 05:43:21;;;;;;;8.88;1.60;;;9.40;99.90;;;;;;4939427;29;20027;-93
2022/01/02 05:45:47;;;;;;;9.30;1.50;;;9.40;99.90;;;;;;4941421;29;20057;-93
2022/01/02 05:48:12;;;;;;;9.13;1.48;;;9.40;99.90;;;;;;4945003;29;20100;-94
2022/01/02 05:50:38;;;;;;;9.45;1.20;;;9.40;99.90;;;;;;4943980;29;20137;-93
2022/01/02 05:53:04;;;;;;;5.80;0.98;;;9.30;99.90;;;;;;4943899;29;20027;-92
2022/01/02 05:55:29;;;;;;;14.05;1.27;;;9.30;99.90;;;;;;4944036;29;20031;-95
2022/01/02 05:57:55;;;;;;;7.45;1.55;;;9.30;99.90;;;;;;4942250;29;20544;-94
2022/01/02 06:00:20;;;;;;;4.10;0.82;;;9.30;99.90;;;;;;4941013;29;20607;-92
2022/01/02 06:02:46;;;;;;;3.75;1.13;;;9.20;99.90;;;;;;4941044;29;20033;-92
2022/01/02 06:05:12;;;;;;;5.00;1.30;;;9.20;99.90;;;;;;4941248;29;20024;-95
2022/01/02 06:07:37;;;;;;;5.65;0.93;;;9.20;99.90;;;;;;4941030;29;20523;-95
2022/01/02 06:10:05;;;;;;;6.15;1.35;;;9.20;99.90;;;;;;4944991;29;20122;-93
2022/01/02 06:12:30;;;;;;;3.50;0.90;;;9.20;99.90;;;;;;4940249;29;20031;-94
2022/01/02 06:14:56;;;;;;;5.00;1.00;;;9.10;99.90;;;;;;4939306;29;20050;-94
2022/01/02 06:17:22;;;;;;;8.25;1.05;;;9.10;99.90;;;;;;4939668;29;20075;-95
2022/01/02 06:19:47;;;;;;;6.68;1.27;;;9.10;99.90;;;;;;4940991;29;20033;-94
2022/01/02 06:22:13;;;;;;;5.05;1.30;;;9.10;99.90;;;;;;4940742;29;20038;-96
2022/01/02 06:24:39;;;;;;;8.18;0.82;;;9.00;99.90;;;;;;4940327;29;20561;-94
2022/01/02 06:27:04;;;;;;;4.53;1.52;;;9.10;99.90;;;;;;4940773;29;20066;-94
2022/01/02 06:29:30;;;;;;;7.40;1.20;;;9.00;99.90;;;;;;4940770;29;20644;-95
2022/01/02 06:31:57;;;;;;;5.18;0.90;;;9.00;99.90;;;;;;4940715;29;20086;-95
2022/01/02 06:34:23;;;;;;;5.72;1.02;;;9.00;99.90;;;;;;4940520;29;20147;-94
2022/01/02 06:36:49;;;;;;;5.75;1.08;;;8.90;99.90;;;;;;4938906;29;20139;-95
2022/01/02 06:39:15;;;;;;;2.63;0.70;;;8.90;99.90;;;;;;4939897;28;20191;-94
2022/01/02 06:41:40;;;;;;;4.80;0.80;;;8.90;99.90;;;;;;4939837;29;20488;-94
2022/01/02 06:44:06;;;;;;;6.38;0.88;;;8.90;99.90;;;;;;4940785;29;20126;-95
2022/01/02 06:46:32;;;;;;;6.03;0.80;;;8.80;99.90;;;;;;4942644;29;20086;-95
2022/01/02 06:48:57;;;;;;;4.07;0.75;;;8.90;99.90;;;;;;4942895;29;20028;-94
2022/01/02 06:51:23;;;;;;;6.38;0.80;;;8.80;99.90;;;;;;4943434;29;20042;-96
2022/01/02 06:53:49;;;;;;;5.57;0.82;;;8.80;99.90;;;;;;4942936;29;20126;-94
2022/01/02 06:56:15;;;;;;;4.05;0.88;;;8.80;99.90;;;;;;4942810;29;20157;-94
2022/01/02 06:58:40;;;;;;;6.07;1.45;;;8.80;99.90;;;;;;4943080;29;20027;-95
2022/01/02 07:01:06;;;;;;;4.03;0.93;;;8.70;99.90;;;;;;4942327;29;20027;-93
2022/01/02 07:03:33;;;;;;;6.95;0.82;;;8.70;99.90;;;;;;4942571;29;20031;-94
2022/01/02 07:06:00;;;;;;;4.05;0.65;;;8.70;99.90;;;;;;4942524;29;20034;-94
2022/01/02 07:08:28;;;;;;;10.48;1.55;;;8.70;99.90;;;;;;4942179;29;20078;-92
2022/01/02 07:10:57;;;;;;;5.13;0.90;;;8.60;99.90;;;;;;4941357;29;20031;-94
2022/01/02 07:13:23;;;;;;;4.35;0.60;;;8.60;99.90;;;;;;4942652;29;20031;-94
2022/01/02 07:15:50;;;;;;;4.55;0.70;;;8.60;99.90;;;;;;4941735;29;20041;-95
2022/01/02 07:18:16;;;;;;;4.70;0.70;;;8.60;99.90;;;;;;4941632;29;20393;-94
2022/01/02 07:20:41;;;;;;;7.45;0.90;;;8.50;99.90;;;;;;4941208;29;20059;-93
2022/01/02 07:23:07;;;;;;;5.10;0.88;;;8.50;99.90;;;;;;4942289;29;20031;-93
2022/01/02 07:25:33;;;;;;;5.30;0.80;;;8.50;99.90;;;;;;4941994;29;20027;-94
2022/01/02 07:27:59;;;;;;;4.07;0.90;;;8.40;99.90;;;;;;4941880;29;20031;-96
2022/01/02 07:30:24;;;;;;;2.55;0.65;;;8.40;99.90;;;;;;4941805;29;20038;-94
2022/01/02 07:32:50;;;;;;;4.88;0.80;;;8.40;99.90;;;;;;4941693;29;20035;-94
2022/01/02 07:35:16;;;;;;;7.68;1.15;;;8.30;99.90;;;;;;4941592;29;20043;-94
2022/01/02 07:37:42;;;;;;;7.00;0.80;;;8.40;99.90;;;;;;4942041;29;20023;-95
2022/01/02 07:40:08;;;;;;;7.68;1.42;;;8.30;99.90;;;;;;4947712;29;20081;-95
2022/01/02 07:42:34;;;;;;;3.97;0.82;;;8.30;99.90;;;;;;4945448;29;20031;-95
2022/01/02 07:44:59;;;;;;;5.80;0.68;;;8.30;99.90;;;;;;4946645;29;20024;-95
2022/01/02 07:47:25;;;;;;;4.25;0.70;;;8.20;99.90;;;;;;4944151;29;20023;-95
2022/01/02 07:49:51;;;;;;;4.05;0.90;;;8.20;99.90;;;;;;4942843;29;20047;-96
2022/01/02 07:52:17;;;;;;;4.75;0.77;;;8.20;99.90;;;;;;4942366;29;20027;-94
2022/01/02 07:54:43;;;;;;;3.80;0.70;;;8.20;99.90;;;;;;4943089;29;20522;-95
2022/01/02 07:57:09;;;;;;;4.38;0.98;;;8.10;99.90;;;;;;4927556;29;20509;-95
2022/01/02 07:59:34;;;;;;;2.65;0.50;;;8.10;99.90;;;;;;4942369;29;20041;-94
2022/01/02 08:02:00;;;;;;;4.93;0.75;;;8.10;99.90;;;;;;4942596;29;20031;-95
2022/01/02 08:04:27;;;;;;;9.43;0.80;;;8.10;99.90;;;;;;4941350;29;20031;-95
2022/01/02 08:06:53;;;;;;;3.78;0.65;;;8.00;99.90;;;;;;4944022;29;20031;-94
2022/01/02 08:09:18;;;;;;;15.40;1.08;;;8.00;99.90;;;;;;4943584;29;20102;-95
2022/01/02 08:11:47;;;;;;;4.43;1.10;;;8.00;99.90;;;;;;4942883;29;20037;-96
2022/01/02 08:14:15;;;;;;;4.68;0.70;;;8.00;99.90;;;;;;4942749;29;20028;-95
2022/01/02 08:16:41;;;;;;;2.83;1.52;;;8.00;99.90;;;;;;4943372;29;20422;-96
2022/01/02 08:19:08;;;;;;;5.95;0.60;;;8.00;99.90;;;;;;4943174;29;20030;-94
2022/01/02 08:21:34;;;;;;;9.80;3.60;;;8.00;99.90;;;;;;4943298;29;20035;-96
2022/01/02 08:24:00;;;;;;;4.32;0.80;;;8.00;99.90;;;;;;4942471;29;20035;-95
2022/01/02 08:26:25;;;;;;;4.95;0.60;;;8.00;99.90;;;;;;4943327;29;20027;-96
2022/01/02 08:28:52;;;;;;;5.25;0.63;;;8.00;99.90;;;;;;4946511;29;20027;-95
2022/01/02 08:31:18;;;;;;;2.38;0.98;;;8.00;99.90;;;;;;4945875;29;20023;-94
2022/01/02 08:33:44;;;;;;;8.43;0.85;;;8.00;99.90;;;;;;4946902;29;20134;-95
2022/01/02 08:36:11;;;;;;;1.52;0.32;;;8.00;99.90;;;;;;4945492;29;20079;-95
2022/01/02 08:38:37;;;;;;;4.13;0.73;;;8.00;99.90;;;;;;4965194;28;20031;-95
2022/01/02 08:41:03;;;;;;;8.90;0.77;;;8.00;99.90;;;;;;4945325;29;20095;-94
2022/01/02 08:43:29;;;;;;;7.22;1.00;;;8.00;99.90;;;;;;4949193;29;20037;-95
2022/01/02 08:45:55;;;;;;;4.80;0.70;;;8.00;99.90;;;;;;4953740;29;20505;-94
2022/01/02 08:48:20;;;;;;;5.28;0.95;;;8.00;99.90;;;;;;4953804;29;20027;-94
2022/01/02 08:50:47;;;;;;;8.85;0.82;;;8.00;99.90;;;;;;4955630;29;20051;-96
2022/01/02 08:53:13;;;;;;;3.25;0.80;;;8.10;99.90;;;;;;4954735;29;20039;-94
2022/01/02 08:55:39;;;;;;;3.15;0.60;;;8.10;99.90;;;;;;4952726;29;20035;-95
2022/01/02 08:58:08;;;;;;;6.60;0.90;;;8.10;99.90;;;;;;4948058;29;20027;-95
2022/01/02 09:00:35;;;;;;;3.00;0.70;;;8.10;99.90;;;;;;4972469;28;20027;-94
2022/01/02 09:03:01;;;;;;;3.55;0.75;;;8.10;99.90;;;;;;4947486;29;20445;-95
2022/01/02 09:05:29;;;;;;;8.20;1.02;;;8.10;99.90;;;;;;4949511;28;20031;-95
2022/01/02 09:07:55;;;;;;;5.80;0.77;;;8.10;99.90;;;;;;4946858;29;20090;-94
2022/01/02 09:10:26;;;;;;;6.50;0.95;;;8.10;99.90;;;;;;4951227;29;20027;-95
2022/01/02 09:12:52;;;;;;;4.80;0.70;;;8.10;99.90;;;;;;4936365;29;20038;-93
2022/01/02 09:15:24;;;;;;;5.93;1.13;;;8.20;99.90;;;;;;4952321;29;20035;-95
2022/01/02 09:17:53;;;;;;;5.45;0.73;;;8.20;99.90;;;;;;4944889;29;20012;-96
2022/01/02 09:20:20;;;;;;;5.47;2.13;;;8.20;99.90;;;;;;4956795;29;20047;-96
2022/01/02 09:22:47;;;;;;;7.68;0.90;;;8.30;99.90;;;;;;4952762;29;20019;-95
2022/01/02 09:25:16;;;;;;;4.72;0.80;;;8.30;99.90;;;;;;4954566;29;20091;-95
2022/01/02 09:28:04;;;;;;;11.80;1.50;;;8.30;99.90;;;;;;4958765;29;20031;-95
2022/01/02 09:30:30;;;;;;;11.15;1.27;;;8.40;99.90;;;;;;4954882;29;20053;-95
2022/01/02 09:32:58;;;;;;;5.00;1.10;;;8.50;99.90;;;;;;4951117;29;20023;-95
2022/01/02 09:35:25;;;;;;;7.43;1.25;;;8.60;99.90;;;;;;4953311;29;20043;-93
2022/01/02 09:37:51;;;;;;;4.78;1.05;;;8.70;99.90;;;;;;4954632;29;20023;-95
2022/01/02 09:40:18;;;;;;;4.45;0.80;;;8.80;99.90;;;;;;4962437;28;20023;-94
2022/01/02 09:42:45;;;;;;;9.07;1.50;;;8.90;99.90;;;;;;4956998;29;20102;-94
2022/01/02 09:45:15;;;;;;;9.98;1.33;;;9.00;99.90;;;;;;4956121;29;20035;-95
2022/01/02 09:47:43;;;;;;;8.75;1.52;;;9.10;99.90;;;;;;4956624;29;20031;-95
2022/01/02 09:50:11;;;;;;;7.28;1.20;;;9.10;99.90;;;;;;4940961;29;20119;-95
2022/01/02 09:52:37;;;;;;;12.10;1.30;;;9.10;99.90;;;;;;4954888;29;20007;-94
2022/01/02 09:55:15;;;;;;;8.15;1.48;;;9.20;99.90;;;;;;4952325;29;20047;-93
2022/01/02 09:57:45;;;;;;;6.32;1.52;;;9.30;99.90;;;;;;4954975;29;20023;-94
2022/01/02 10:00:13;;;;;;;;;;;9.40;99.90;;;;;;4957509;29;20037;-93
2022/01/02 10:02:58;;;;;;;6.57;1.77;;;9.50;99.90;;;;;;4969335;29;19902;-95
2022/01/02 10:05:56;;;;;;;10.45;0.93;;;9.70;99.90;;;;;;4954721;29;20034;-96
2022/01/02 10:08:39;;;;;;;11.63;2.00;;;9.90;99.90;;;;;;4988692;23;20047;-94
2022/01/02 10:11:22;;;;;;;13.65;1.20;;;10.00;99.90;;;;;;4971503;28;20085;-94
2022/01/02 10:14:02;;;;;;;7.85;1.38;;;10.20;99.90;;;;;;4973593;28;20030;-94
2022/01/02 10:16:42;;;;;;;11.75;1.80;;;10.30;99.90;;;;;;4971588;28;20023;-94
2022/01/02 10:19:36;;;;;;;10.63;1.20;;;10.40;99.90;;;;;;4984556;28;20034;-95
2022/01/02 10:22:05;;;;;;;10.75;1.35;;;10.60;99.90;;;;;;4985233;28;20018;-96
2022/01/02 10:24:47;;;;;;;6.32;0.98;;;10.70;99.90;;;;;;4978470;28;20130;-95
2022/01/02 10:27:16;;;;;;;9.68;1.40;;;10.80;99.90;;;;;;4993740;28;20015;-95
2022/01/02 10:29:50;;;;;;;4.30;1.05;;;10.90;99.90;;;;;;4974535;28;20034;-96
2022/01/02 10:32:28;;;;;;;5.95;1.55;;;10.90;99.90;;;;;;4975901;28;20034;-94
2022/01/02 10:35:22;;;;;;;10.85;2.03;;;11.00;99.90;;;;;;4974126;28;20086;-95
2022/01/02 10:37:57;;;;;;;5.95;1.30;;;11.00;99.90;;;;;;4995734;28;20023;-96
2022/01/02 10:40:32;;;;;;;6.40;1.20;;;11.00;99.90;;;;;;4963434;29;20041;-96
2022/01/02 10:43:01;;;;;;;7.25;1.27;;;11.10;99.90;;;;;;4951394;29;20110;-95
2022/01/02 10:45:35;;;;;;;9.23;1.50;;;11.20;99.90;;;;;;4954345;29;20038;-95
2022/01/02 10:48:07;;;;;;;10.55;2.00;;;11.30;99.90;;;;;;4947700;29;20031;-94
2022/01/02 10:50:33;;;;;;;6.45;1.30;;;11.40;99.90;;;;;;4934256;29;20030;-95
2022/01/02 10:53:12;;;;;;;7.07;1.17;;;11.50;99.90;;;;;;4954112;29;20034;-95
2022/01/02 10:55:39;;;;;;;8.32;1.20;;;11.50;99.90;;;;;;4940259;29;20043;-94
2022/01/02 10:58:07;;;;;;;9.57;2.38;;;11.60;99.90;;;;;;4955105;29;20493;-96
2022/01/02 11:00:38;;;;;;;10.38;1.88;;;11.80;99.90;;;;;;4937888;29;20481;-95
2022/01/02 11:03:08;;;;;;;1.88;0.55;;;11.90;99.90;;;;;;4943212;29;20063;-94
2022/01/02 11:05:36;;;;;;;15.73;2.40;;;12.00;99.90;;;;;;4932046;29;20038;-96
2022/01/02 11:08:04;;;;;;;7.10;1.30;;;12.10;99.90;;;;;;4965600;29;20035;-96
2022/01/02 11:10:31;;;;;;;8.52;1.15;;;12.20;99.90;;;;;;4948326;29;20490;-94
2022/01/02 11:12:58;;;;;;;10.00;1.90;;;12.30;99.90;;;;;;4930789;29;20035;-95
2022/01/02 11:15:26;;;;;;;8.77;1.17;;;12.40;99.90;;;;;;4949167;29;20043;-96
2022/01/02 11:17:53;;;;;;;7.47;1.55;;;12.50;99.90;;;;;;4946003;29;20028;-94
2022/01/02 11:20:46;;;;;;;10.77;1.45;;;12.50;99.90;;;;;;4947732;29;20035;-94
2022/01/02 11:23:53;;;;;;;5.55;1.30;;;12.60;99.90;;;;;;4946081;29;20023;-95
2022/01/02 11:26:29;;;;;;;13.35;1.80;;;12.60;99.90;;;;;;4946828;29;20027;-94
2022/01/02 11:28:57;;;;;;;13.48;1.60;;;12.60;99.90;;;;;;4946847;28;20028;-95
2022/01/02 11:31:34;;;;;;;9.88;1.45;;;12.50;99.90;;;;;;4928916;29;20047;-93
2022/01/02 11:34:01;;;;;;;7.18;1.35;;;12.50;99.90;;;;;;4943813;29;20035;-93
2022/01/02 11:36:34;;;;;;;13.65;1.35;;;12.50;99.90;;;;;;4944272;29;20390;-95
2022/01/02 11:39:01;;;;;;;10.35;1.80;;;12.50;99.90;;;;;;4943448;29;20121;-95
2022/01/02 11:41:53;;;;;;;9.93;1.20;;;12.50;99.90;;;;;;4939143;29;20114;-95
2022/01/02 11:44:43;;;;;;;7.68;1.58;;;12.40;99.90;;;;;;4949874;29;20111;-94
2022/01/02 11:47:09;;;;;;;4.05;1.33;;;12.20;99.90;;;;;;4950798;29;20028;-95
2022/01/02 11:49:48;;;;;;;11.73;1.80;;;11.90;99.90;;;;;;4969138;29;20118;-95
2022/01/02 11:52:22;;;;;;;15.60;1.67;;;11.60;99.90;;;;;;4948852;29;20027;-95
2022/01/02 11:54:53;;;;;;;8.35;1.35;;;11.40;99.90;;;;;;4947010;29;20063;-94
2022/01/02 11:57:22;;;;;;;14.43;1.50;;;11.30;99.90;;;;;;4945508;29;20023;-94
2022/01/02 11:59:48;;;;;;;11.05;1.25;;;11.10;99.90;;;;;;4944844;29;20063;-93
2022/01/02 12:02:26;;;;;;;9.48;1.75;;;11.00;99.90;;;;;;4944138;29;20038;-93
2022/01/02 12:05:15;;;;;;;10.02;1.55;;;10.90;99.90;;;;;;4946512;29;20035;-94
2022/01/02 12:07:45;;;;;;;8.20;1.58;;;10.80;99.90;;;;;;4943843;29;20066;-94
2022/01/02 12:10:14;;;;;;;9.70;1.92;;;10.70;99.90;;;;;;4945198;29;20122;-93
2022/01/02 12:13:10;;;;;;;16.77;2.17;;;10.60;99.90;;;;;;4945261;29;20035;-94
2022/01/02 12:15:38;;;;;;;12.90;2.38;;;10.60;99.90;;;;;;4942097;29;20028;-95
2022/01/02 12:18:16;;;;;;;9.30;1.25;;;10.50;99.90;;;;;;4960523;29;20456;-95
2022/01/02 12:20:51;;;;;;;9.70;1.92;;;10.50;99.90;;;;;;4943335;29;20027;-93
2022/01/02 12:25:58;;;;;;;;;;;10.50;99.90;;;;;;4960146;29;20362;-93
2022/01/02 12:28:25;;;;;;;4.43;1.15;;;10.40;99.90;;;;;;4942337;29;19910;-94
2022/01/02 12:30:54;;;;;;;6.68;1.08;;;10.40;99.90;;;;;;4948737;29;20476;-93
2022/01/02 12:33:29;;;;;;;12.40;2.38;;;10.30;99.90;;;;;;4942075;29;20094;-93
2022/01/02 12:35:55;;;;;;;14.40;2.20;;;10.20;99.90;;;;;;4943523;29;20130;-94
2022/01/02 12:38:20;;;;;;;17.23;2.40;;;10.20;99.90;;;;;;4943165;29;20073;-96
2022/01/02 12:40:49;;;;;;;13.55;1.45;;;10.10;99.90;;;;;;4943519;29;20062;-94
2022/01/02 12:43:23;;;;;;;12.75;1.80;;;10.00;99.90;;;;;;4949556;29;20023;-93
2022/01/02 12:45:55;;;;;;;9.02;1.70;;;10.00;99.90;;;;;;4949248;29;20115;-94
2022/01/02 12:48:38;;;;;;;9.48;1.58;;;9.90;99.90;;;;;;4945346;29;20023;-92
2022/01/02 12:51:11;;;;;;;8.95;2.00;;;9.90;99.90;;;;;;4946718;29;20027;-95
2022/01/02 12:53:39;;;;;;;16.95;2.25;;;9.90;99.90;;;;;;4942908;29;20031;-93
2022/01/02 12:56:06;;;;;;;10.75;1.15;;;9.80;99.90;;;;;;4960346;29;20035;-94
2022/01/02 12:58:34;;;;;;;7.85;1.40;;;9.80;99.90;;;;;;4941814;29;20031;-95
2022/01/02 13:01:06;;;;;;;13.18;1.60;;;9.80;99.90;;;;;;4941298;29;20101;-94
2022/01/02 13:03:32;;;;;;;16.60;4.18;;;9.80;99.90;;;;;;4942341;29;20023;-93
2022/01/02 13:05:58;;;;;;;9.43;1.33;;;9.80;99.90;;;;;;4945583;29;20099;-93